Time;durP1;ratioP1;P1;durP2;ratioP2;P2;SDS_P1;SDS_P2;PMS_P1;PMS_P2;Temp;Humidity;BMP_temperature;BMP_pressure;BME280_temperature;BME280_humidity;BME280_pressure;Samples;Min_cycle;Max_cycle;Signal;HPM_P1;HPM_P2
2022/10/15 00:01:32;;;;;;;;;;;;;;;11.60;100.00;100628.19;5034529;28;19928;-74
2022/10/15 00:03:58;;;;;;;;;;;;;;;11.58;100.00;100630.03;5032492;28;19956;-73
2022/10/15 00:06:24;;;;;;;;;;;;;;;11.59;100.00;100626.47;5035255;28;19925;-74
2022/10/15 00:08:49;;;;;;;;;;;;;;;11.59;100.00;100626.47;5034169;28;19929;-73
2022/10/15 00:11:15;;;;;;;;;;;;;;;11.59;100.00;100626.47;5034284;28;20015;-72
2022/10/15 00:13:41;;;;;;;;;;;;;;;11.60;100.00;100628.19;5033091;28;19983;-73
2022/10/15 00:16:08;;;;;;;;;;;;;;;11.61;100.00;100619.28;5042689;28;19962;-73
2022/10/15 00:18:33;;;;;;;;;;;;;;;11.62;100.00;100621.84;5035337;28;20023;-73
2022/10/15 00:20:59;;;;;;;;;;;;;;;11.63;100.00;100610.31;5034752;28;20298;-73
2022/10/15 00:23:24;;;;;;;;;;;;;;;11.63;100.00;100615.59;5028445;28;20404;-73
2022/10/15 00:25:49;;;;;;;;;;;;;;;11.66;100.00;100617.25;5034592;28;20335;-73
2022/10/15 00:28:15;;;;;;;;;;;;;;;11.66;100.00;100619.91;5034925;28;19929;-74
2022/10/15 00:30:40;;;;;;;;;;;;;;;11.68;100.00;100629.44;5036042;28;19960;-73
2022/10/15 00:33:05;;;;;;;;;;;;;;;11.70;100.00;100620.59;5033536;28;19955;-74
2022/10/15 00:35:31;;;;;;;;;;;;;;;11.70;100.00;100621.41;5034983;28;19935;-74
2022/10/15 00:37:56;;;;;;;;;;;;;;;11.69;100.00;100625.03;5033340;28;19987;-74
2022/10/15 00:40:22;;;;;;;;;;;;;;;11.69;100.00;100617.06;5033382;28;19929;-74
2022/10/15 00:42:47;;;;;;;;;;;;;;;11.71;100.00;100619.63;5032992;28;19971;-74
2022/10/15 00:45:13;;;;;;;;;;;;;;;11.72;100.00;100621.34;5033115;28;19929;-74
2022/10/15 00:47:39;;;;;;;;;;;;;;;11.70;100.00;100621.41;5033327;28;19931;-74
2022/10/15 00:50:10;;;;;;;;;;;;;;;11.70;100.00;100613.47;5012363;28;19924;-74
2022/10/15 00:52:56;;;;;;;;;;;;;;;11.70;100.00;100608.16;5033605;28;19935;-73
2022/10/15 00:55:22;;;;;;;;;;;;;;;11.69;100.00;100609.09;5051152;28;20425;-73
2022/10/15 00:57:47;;;;;;;;;;;;;;;11.68;100.00;100596.78;5028152;28;19929;-74
2022/10/15 01:00:16;;;;;;;;;;;;;;;11.68;100.00;100602.09;5032763;28;19928;-74
2022/10/15 01:02:44;;;;;;;;;;;;;;;11.66;100.00;100594.22;5049807;28;19940;-74
2022/10/15 01:05:10;;;;;;;;;;;;;;;11.65;100.00;100597.81;5033314;28;19979;-73
2022/10/15 01:07:36;;;;;;;;;;;;;;;11.66;100.00;100596.03;5026687;28;19952;-74
2022/10/15 01:10:01;;;;;;;;;;;;;;;11.64;100.00;100597.88;5032032;28;20358;-75
2022/10/15 01:12:29;;;;;;;;;;;;;;;11.64;100.00;100604.06;5015771;28;19978;-74
2022/10/15 01:15:07;;;;;;;;;;;;;;;11.63;100.00;100599.69;5029254;28;19929;-73
2022/10/15 01:17:35;;;;;;;;;;;;;;;11.62;100.00;100600.66;5035232;28;19936;-73
2022/10/15 01:20:07;;;;;;;;;;;;;;;11.62;100.00;100591.81;5034263;28;19929;-73
2022/10/15 01:22:50;;;;;;;;;;;;;;;11.63;100.00;100590.88;5036704;28;19935;-73
2022/10/15 01:25:54;;;;;;;;;;;;;;;11.63;100.00;100590.88;5028914;28;19936;-73
2022/10/15 01:28:19;;;;;;;;;;;;;;;11.62;100.00;100587.38;5012340;28;19959;-73
2022/10/15 01:30:46;;;;;;;;;;;;;;;11.62;100.00;100573.25;4996555;28;20654;-74
2022/10/15 01:33:11;;;;;;;;;;;;;;;11.61;100.00;100583.00;5021393;28;19936;-73
2022/10/15 01:35:41;;;;;;;;;;;;;;;11.61;100.00;100575.03;5032605;28;20299;-73
2022/10/15 01:38:09;;;;;;;;;;;;;;;11.60;100.00;100573.34;5027006;28;20066;-74
2022/10/15 01:40:42;;;;;;;;;;;;;;;11.60;100.00;100575.16;5028079;28;20035;-73
2022/10/15 01:43:08;;;;;;;;;;;;;;;11.59;100.00;100574.28;5027239;28;19929;-74
2022/10/15 01:45:36;;;;;;;;;;;;;;;11.60;100.00;100569.84;5050674;28;19932;-74
2022/10/15 01:48:02;;;;;;;;;;;;;;;11.60;100.00;100572.50;5026963;28;19929;-74
2022/10/15 01:50:29;;;;;;;;;;;;;;;11.60;100.00;100575.97;5050197;28;19929;-73
2022/10/15 01:52:54;;;;;;;;;;;;;;;11.60;100.00;100569.84;5028356;28;19932;-74
2022/10/15 01:55:20;;;;;;;;;;;;;;;11.60;100.00;100573.34;5028479;28;20434;-74
2022/10/15 01:57:45;;;;;;;;;;;;;;;11.60;100.00;100569.84;5027238;28;19986;-74
2022/10/15 02:00:11;;;;;;;;;;;;;;;11.59;100.00;100560.19;5032218;28;19933;-74
2022/10/15 02:02:36;;;;;;;;;;;;;;;11.60;100.00;100553.94;5026547;28;19932;-74
2022/10/15 02:05:02;;;;;;;;;;;;;;;11.59;100.00;100562.84;5032025;28;21639;-73
2022/10/15 02:07:30;;;;;;;;;;;;;;;11.58;100.00;100564.63;5026195;28;19941;-74
2022/10/15 02:09:57;;;;;;;;;;;;;;;11.57;100.00;100557.59;5031927;28;20454;-75
2022/10/15 02:12:31;;;;;;;;;;;;;;;11.57;100.00;100562.03;5026048;28;19932;-73
2022/10/15 02:14:56;;;;;;;;;;;;;;;11.55;100.00;100560.34;5048853;28;19963;-72
2022/10/15 02:17:23;;;;;;;;;;;;;;;11.55;100.00;100552.38;5032022;28;20682;-73
2022/10/15 02:19:49;;;;;;;;;;;;;;;11.55;100.00;100552.38;5034420;28;19994;-74
2022/10/15 02:22:46;;;;;;;;;;;;;;;11.55;100.00;100551.50;5035606;28;20334;-73
2022/10/15 02:25:13;;;;;;;;;;;;;;;11.53;100.00;100548.97;5032664;28;19929;-73
2022/10/15 02:27:38;;;;;;;;;;;;;;;11.52;100.00;100544.59;5053402;28;19932;-74
2022/10/15 02:30:05;;;;;;;;;;;;;;;11.52;100.00;100546.38;5030776;28;19971;-73
2022/10/15 02:32:30;;;;;;;;;;;;;;;11.50;100.00;100535.84;5032698;28;19988;-74
2022/10/15 02:34:56;;;;;;;;;;;;;;;11.49;100.00;100541.25;5032047;28;19937;-73
2022/10/15 02:37:22;;;;;;;;;;;;;;;11.48;100.00;100537.75;5053299;28;20587;-74
2022/10/15 02:39:47;;;;;;;;;;;;;;;11.47;100.00;100538.69;5022914;28;21665;-74
2022/10/15 02:42:13;;;;;;;;;;;;;;;11.47;100.00;100538.69;5036691;28;19955;-74
2022/10/15 02:44:39;;;;;;;;;;;;;;;11.47;100.00;100537.81;5053714;28;19951;-74
2022/10/15 02:47:04;;;;;;;;;;;;;;;11.47;100.00;100533.38;5036429;28;20376;-74
2022/10/15 02:49:30;;;;;;;;;;;;;;;11.45;100.00;100537.94;5036485;28;19970;-74
2022/10/15 02:51:55;;;;;;;;;;;;;;;11.44;100.00;100538.00;5036093;28;19939;-74
2022/10/15 02:54:20;;;;;;;;;;;;;;;11.42;100.00;100535.41;5036391;28;19940;-74
2022/10/15 02:56:46;;;;;;;;;;;;;;;11.43;100.00;100533.66;5031982;28;19978;-73
2022/10/15 02:59:11;;;;;;;;;;;;;;;11.40;100.00;100524.06;5015557;28;20023;-73
2022/10/15 03:01:36;;;;;;;;;;;;;;;11.40;100.00;100526.72;5036340;28;19956;-73
2022/10/15 03:04:02;;;;;;;;;;;;;;;11.38;100.00;100523.25;5035509;28;19971;-74
2022/10/15 03:06:27;;;;;;;;;;;;;;;11.38;100.00;100523.25;5035457;28;20445;-75
2022/10/15 03:08:53;;;;;;;;;;;;;;;11.37;100.00;100527.72;5035218;28;20457;-74
2022/10/15 03:11:18;;;;;;;;;;;;;;;11.36;100.00;100530.44;5034904;28;19972;-75
2022/10/15 03:13:44;;;;;;;;;;;;;;;11.35;100.00;100523.44;5034843;28;20965;-74
2022/10/15 03:16:09;;;;;;;;;;;;;;;11.34;100.00;100519.09;5035444;28;20435;-74
2022/10/15 03:18:35;;;;;;;;;;;;;;;11.34;100.00;100513.78;5052496;28;19925;-74
2022/10/15 03:21:00;;;;;;;;;;;;;;;11.33;100.00;100515.56;5052274;28;19929;-74
2022/10/15 03:23:26;;;;;;;;;;;;;;;11.32;100.00;100511.22;5051519;28;20349;-74
2022/10/15 03:25:53;;;;;;;;;;;;;;;11.32;100.00;100510.38;5051451;28;20347;-73
2022/10/15 03:28:18;;;;;;;;;;;;;;;11.31;100.00;100520.09;5029124;28;20497;-74
2022/10/15 03:30:44;;;;;;;;;;;;;;;11.31;100.00;100517.44;5033620;28;19959;-74
2022/10/15 03:33:09;;;;;;;;;;;;;;;11.32;100.00;100518.31;5034837;28;20280;-74
2022/10/15 03:35:35;;;;;;;;;;;;;;;11.33;100.00;100514.72;5035988;28;19995;-73
2022/10/15 03:38:00;;;;;;;;;;;;;;;11.32;100.00;100507.72;5034023;28;20362;-74
2022/10/15 03:40:25;;;;;;;;;;;;;;;11.31;100.00;100508.63;5016693;28;19991;-73
2022/10/15 03:42:51;;;;;;;;;;;;;;;11.30;100.00;100505.16;5033976;28;19971;-74
2022/10/15 03:45:17;;;;;;;;;;;;;;;11.30;100.00;100504.28;5034068;28;19933;-73
2022/10/15 03:47:42;;;;;;;;;;;;;;;11.27;100.00;100503.50;5034333;28;20388;-73
2022/10/15 03:50:08;;;;;;;;;;;;;;;11.26;100.00;100504.44;5028919;28;21689;-73
2022/10/15 03:52:34;;;;;;;;;;;;;;;11.27;100.00;100498.22;5028259;28;20426;-73
2022/10/15 03:55:00;;;;;;;;;;;;;;;11.27;100.00;100503.50;5028371;28;19967;-73
2022/10/15 03:57:25;;;;;;;;;;;;;;;11.27;100.00;100506.16;5033217;28;20023;-73
2022/10/15 03:59:50;;;;;;;;;;;;;;;11.28;100.00;100501.72;5034568;28;19986;-74
2022/10/15 04:02:16;;;;;;;;;;;;;;;11.28;100.00;100502.56;5034480;28;19975;-74
2022/10/15 04:04:41;;;;;;;;;;;;;;;11.29;100.00;100500.78;5034188;28;20295;-73
2022/10/15 04:07:07;;;;;;;;;;;;;;;11.30;100.00;100514.88;5034437;28;19933;-72
2022/10/15 04:09:32;;;;;;;;;;;;;;;11.31;100.00;100508.63;5035751;28;20414;-73
2022/10/15 04:11:57;;;;;;;;;;;;;;;11.31;100.00;100511.28;5035476;28;19946;-73
2022/10/15 04:14:23;;;;;;;;;;;;;;;11.32;100.00;100505.91;5033331;28;19939;-72
2022/10/15 04:16:48;;;;;;;;;;;;;;;11.33;100.00;100509.44;5035180;28;20007;-73
2022/10/15 04:19:13;;;;;;;;;;;;;;;11.33;100.00;100509.44;5034848;28;20374;-74
2022/10/15 04:21:39;;;;;;;;;;;;;;;11.32;100.00;100495.31;5034252;28;20081;-74
2022/10/15 04:24:04;;;;;;;;;;;;;;;11.32;100.00;100505.06;5033867;28;19936;-74
2022/10/15 04:26:29;;;;;;;;;;;;;;;11.30;100.00;100505.16;5033671;28;19933;-73
2022/10/15 04:28:55;;;;;;;;;;;;;;;11.30;100.00;100506.94;5028071;28;19978;-74
2022/10/15 04:31:20;;;;;;;;;;;;;;;11.28;100.00;100499.09;5033565;28;19932;-74
2022/10/15 04:33:49;;;;;;;;;;;;;;;11.26;100.00;100507.09;5033460;28;19933;-74
2022/10/15 04:36:14;;;;;;;;;;;;;;;11.26;100.00;100509.75;5028006;28;20031;-74
2022/10/15 04:38:40;;;;;;;;;;;;;;;11.24;100.00;100506.31;5033464;28;20058;-74
2022/10/15 04:41:06;;;;;;;;;;;;;;;11.23;100.00;100504.59;5033946;28;19980;-74
2022/10/15 04:43:32;;;;;;;;;;;;;;;11.22;100.00;100512.66;5033506;28;19929;-74
2022/10/15 04:46:01;;;;;;;;;;;;;;;11.20;100.00;100499.47;5033619;28;19924;-74
2022/10/15 04:48:27;;;;;;;;;;;;;;;11.20;100.00;100495.97;5033088;28;21479;-74
2022/10/15 04:50:53;;;;;;;;;;;;;;;11.18;100.00;100489.91;5033850;28;19932;-74
2022/10/15 04:53:18;;;;;;;;;;;;;;;11.16;100.00;100494.44;5032743;28;19940;-74
2022/10/15 04:55:44;;;;;;;;;;;;;;;11.14;100.00;100499.81;5003866;28;19936;-74
2022/10/15 04:58:09;;;;;;;;;;;;;;;11.12;100.00;100491.09;5030549;28;19994;-74
2022/10/15 05:00:35;;;;;;;;;;;;;;;11.10;100.00;100498.25;5034272;28;20660;-74
2022/10/15 05:03:00;;;;;;;;;;;;;;;11.08;100.00;100490.41;5032486;28;19921;-74
2022/10/15 05:05:25;;;;;;;;;;;;;;;11.07;100.00;100487.81;5032701;28;19937;-74
2022/10/15 05:07:51;;;;;;;;;;;;;;;11.07;100.00;100495.78;5032695;28;20668;-74
2022/10/15 05:10:16;;;;;;;;;;;;;;;11.06;100.00;100494.06;5032807;28;19991;-74
2022/10/15 05:12:42;;;;;;;;;;;;;;;11.05;100.00;100487.06;5032285;28;20105;-74
2022/10/15 05:15:07;;;;;;;;;;;;;;;11.04;100.00;100490.63;5032586;28;19940;-74
2022/10/15 05:17:33;;;;;;;;;;;;;;;11.05;100.00;100492.34;5032384;28;20384;-74
2022/10/15 05:19:58;;;;;;;;;;;;;;;11.05;100.00;100487.06;5033177;28;19937;-73
2022/10/15 05:22:24;;;;;;;;;;;;;;;11.05;100.00;100498.50;5013149;28;19928;-74
2022/10/15 05:24:49;;;;;;;;;;;;;;;11.06;100.00;100497.56;5016134;28;19945;-74
2022/10/15 05:27:15;;;;;;;;;;;;;;;11.04;100.00;100495.91;5033742;28;20549;-73
2022/10/15 05:29:40;;;;;;;;;;;;;;;11.03;100.00;100496.84;5034039;28;19925;-73
2022/10/15 05:32:05;;;;;;;;;;;;;;;11.02;100.00;100489.84;5033541;28;20043;-73
2022/10/15 05:34:32;;;;;;;;;;;;;;;10.99;100.00;100497.03;5032228;28;20030;-73
2022/10/15 05:36:58;;;;;;;;;;;;;;;10.99;100.00;100502.34;5034119;28;19933;-74
2022/10/15 05:39:23;;;;;;;;;;;;;;;10.98;100.00;100490.03;5032573;28;20491;-73
2022/10/15 05:41:48;;;;;;;;;;;;;;;10.97;100.00;100493.63;5026392;28;19925;-73
2022/10/15 05:44:14;;;;;;;;;;;;;;;10.95;100.00;100499.94;5030296;28;20387;-73
2022/10/15 05:46:39;;;;;;;;;;;;;;;10.93;100.00;100497.34;5027767;28;20288;-73
2022/10/15 05:49:05;;;;;;;;;;;;;;;10.91;100.00;100498.38;5032494;28;19924;-73
2022/10/15 05:51:30;;;;;;;;;;;;;;;10.89;100.00;100500.25;5031894;28;19933;-73
2022/10/15 05:53:56;;;;;;;;;;;;;;;10.85;100.00;100496.91;5030945;28;19976;-73
2022/10/15 05:56:21;;;;;;;;;;;;;;;10.79;100.00;100495.41;5032417;28;19937;-73
2022/10/15 05:58:47;;;;;;;;;;;;;;;10.76;100.00;100485.00;5040271;28;19999;-73
2022/10/15 06:01:12;;;;;;;;;;;;;;;10.71;100.00;100487.88;5032498;28;19936;-73
2022/10/15 06:03:38;;;;;;;;;;;;;;;10.68;100.00;100492.50;5027391;28;20007;-73
2022/10/15 06:06:04;;;;;;;;;;;;;;;10.65;100.00;100500.56;5031657;28;19978;-73
2022/10/15 06:08:30;;;;;;;;;;;;;;;10.63;100.00;100502.44;5031846;28;19928;-73
2022/10/15 06:11:00;;;;;;;;;;;;;;;10.61;100.00;100505.16;5031678;28;20020;-73
2022/10/15 06:13:26;;;;;;;;;;;;;;;10.62;100.00;100500.75;5031740;28;19964;-74
2022/10/15 06:15:51;;;;;;;;;;;;;;;10.62;100.00;100498.09;5031704;28;20031;-73
2022/10/15 06:18:16;;;;;;;;;;;;;;;10.62;100.00;100501.59;5031806;28;19972;-74
2022/10/15 06:20:42;;;;;;;;;;;;;;;10.64;100.00;100499.72;5028521;28;19925;-74
2022/10/15 06:23:08;;;;;;;;;;;;;;;10.65;100.00;100489.97;5031984;28;19932;-73
2022/10/15 06:25:33;;;;;;;;;;;;;;;10.65;100.00;100493.50;5031531;28;19929;-74
2022/10/15 06:28:02;;;;;;;;;;;;;;;10.67;100.00;100493.44;5031328;28;19929;-74
2022/10/15 06:30:28;;;;;;;;;;;;;;;10.67;100.00;100491.63;5048347;28;20035;-74
2022/10/15 06:32:54;;;;;;;;;;;;;;;10.70;100.00;100488.84;5025906;28;19928;-73
2022/10/15 06:35:20;;;;;;;;;;;;;;;10.70;100.00;100496.78;5031176;28;19929;-73
2022/10/15 06:37:45;;;;;;;;;;;;;;;10.71;100.00;100495.84;5031550;28;19933;-73
2022/10/15 06:40:11;;;;;;;;;;;;;;;10.73;100.00;100491.31;5048273;28;19928;-73
2022/10/15 06:42:36;;;;;;;;;;;;;;;10.74;100.00;100492.19;5049032;28;19990;-72
2022/10/15 06:45:02;;;;;;;;;;;;;;;10.76;100.00;100484.13;5026905;28;20295;-73
2022/10/15 06:47:28;;;;;;;;;;;;;;;10.77;100.00;100489.34;5032650;28;20011;-73
2022/10/15 06:49:53;;;;;;;;;;;;;;;10.79;100.00;100484.00;5032658;28;19935;-73
2022/10/15 06:52:19;;;;;;;;;;;;;;;10.81;100.00;100490.91;5026536;28;19929;-73
2022/10/15 06:54:45;;;;;;;;;;;;;;;10.83;100.00;100490.81;5035486;28;20280;-73
2022/10/15 06:57:10;;;;;;;;;;;;;;;10.85;100.00;100494.25;5033195;28;19971;-73
2022/10/15 06:59:36;;;;;;;;;;;;;;;10.88;100.00;100496.72;5011134;28;19921;-73
2022/10/15 07:02:01;;;;;;;;;;;;;;;10.93;100.00;100491.19;5031111;28;19959;-73
2022/10/15 07:04:26;;;;;;;;;;;;;;;10.97;100.00;100490.97;5031634;28;19925;-73
2022/10/15 07:06:52;;;;;;;;;;;;;;;11.03;100.00;100488.91;5031574;28;20272;-72
2022/10/15 07:09:18;;;;;;;;;;;;;;;11.09;100.00;100485.94;5032999;28;19960;-71
2022/10/15 07:11:43;;;;;;;;;;;;;;;11.12;100.00;100486.63;5032860;28;19924;-71
2022/10/15 07:14:08;;;;;;;;;;;;;;;11.15;100.00;100485.63;5034452;28;20034;-71
2022/10/15 07:16:36;;;;;;;;;;;;;;;11.17;100.00;100483.72;5034455;28;20392;-71
2022/10/15 07:19:01;;;;;;;;;;;;;;;11.19;100.00;100475.72;5034438;28;19979;-71
2022/10/15 07:21:27;;;;;;;;;;;;;;;11.20;100.00;100488.88;5052613;28;19928;-72
2022/10/15 07:23:52;;;;;;;;;;;;;;;11.23;100.00;100486.06;5036202;28;19932;-71
2022/10/15 07:26:17;;;;;;;;;;;;;;;11.25;100.00;100481.53;5034770;28;20358;-71
2022/10/15 07:28:43;;;;;;;;;;;;;;;11.29;100.00;100490.19;5034702;28;19928;-72
2022/10/15 07:31:08;;;;;;;;;;;;;;;11.33;100.00;100490.88;5035396;28;20338;-72
2022/10/15 07:33:34;;;;;;;;;;;;;;;11.35;100.00;100486.34;5034524;28;19935;-72
2022/10/15 07:36:03;;;;;;;;;;;;;;;11.37;100.00;100487.09;5051070;28;19936;-72
2022/10/15 07:38:29;;;;;;;;;;;;;;;11.40;100.00;100484.28;5028450;28;19932;-72
2022/10/15 07:40:58;;;;;;;;;;;;;;;11.42;100.00;100490.34;5041463;28;19929;-72
2022/10/15 07:43:23;;;;;;;;;;;;;;;11.46;100.00;100486.63;5033934;28;19964;-72
2022/10/15 07:45:49;;;;;;;;;;;;;;;11.49;100.00;100489.09;5033952;28;20075;-72
2022/10/15 07:48:14;;;;;;;;;;;;;;;11.53;100.00;100489.78;5032779;28;19935;-73
2022/10/15 07:50:40;;;;;;;;;;;;;;;11.55;100.00;100493.19;5033062;28;20422;-73
2022/10/15 07:53:05;;;;;;;;;;;;;;;11.59;100.00;100488.59;5040847;28;19929;-73
2022/10/15 07:55:31;;;;;;;;;;;;;;;11.60;100.00;100491.13;5034092;28;19933;-72
2022/10/15 07:57:57;;;;;;;;;;;;;;;11.65;100.00;100486.44;5029055;28;21353;-72
2022/10/15 08:00:22;;;;;;;;;;;;;;;11.70;100.00;100493.31;5029040;28;19983;-72
2022/10/15 08:02:48;;;;;;;;;;;;;;;11.70;100.00;100494.13;5051336;28;20019;-72
2022/10/15 08:05:13;;;;;;;;;;;;;;;11.72;100.00;100481.63;5034059;28;20388;-72
2022/10/15 08:07:40;;;;;;;;;;;;;;;11.74;100.00;100493.03;5033402;28;19933;-72
2022/10/15 08:10:06;;;;;;;;;;;;;;;11.77;100.00;100479.59;5033303;28;19943;-73
2022/10/15 08:12:32;;;;;;;;;;;;;;;11.82;100.00;100484.63;5051390;28;19929;-73
2022/10/15 08:14:57;;;;;;;;;;;;;;;11.86;100.00;100482.66;5033336;28;19987;-73
2022/10/15 08:17:22;;;;;;;;;;;;;;;11.89;100.00;100479.84;5026969;28;19929;-73
2022/10/15 08:19:48;;;;;;;;;;;;;;;11.91;100.00;100477.94;5033579;28;19959;-72
2022/10/15 08:22:13;;;;;;;;;;;;;;;11.94;100.00;100475.13;5037092;28;19929;-72
2022/10/15 08:24:39;;;;;;;;;;;;;;;11.97;100.00;100487.38;5033336;28;19940;-71
2022/10/15 08:27:04;;;;;;;;;;;;;;;11.99;100.00;100488.97;5033333;28;19979;-72
2022/10/15 08:29:29;;;;;;;;;;;;;;;12.03;100.00;100498.50;5040645;28;20059;-71
2022/10/15 08:31:55;;;;;;;;;;;;;;;12.06;100.00;100494.84;5023450;28;19940;-72
2022/10/15 08:34:20;;;;;;;;;;;;;;;12.05;100.00;100499.28;5033081;28;19975;-72
2022/10/15 08:36:45;;;;;;;;;;;;;;;12.05;100.00;100496.63;5040345;28;20030;-72
2022/10/15 08:39:11;;;;;;;;;;;;;;;12.05;100.00;100491.31;5032969;28;19929;-72
2022/10/15 08:41:37;;;;;;;;;;;;;;;12.07;100.00;100493.88;5033541;28;19968;-72
2022/10/15 08:44:03;;;;;;;;;;;;;;;12.05;100.00;100488.66;5011848;28;20380;-72
2022/10/15 08:46:31;;;;;;;;;;;;;;;12.03;100.00;100490.56;5028493;28;19939;-71
2022/10/15 08:48:57;;;;;;;;;;;;;;;12.02;100.00;100491.47;5036082;28;19928;-72
2022/10/15 08:51:23;;;;;;;;;;;;;;;12.02;100.00;100487.94;5027785;28;19959;-72
2022/10/15 08:53:50;;;;;;;;;;;;;;;12.04;100.00;100480.81;5026828;28;20494;-72
2022/10/15 08:56:23;;;;;;;;;;;;;;;12.05;100.00;100491.31;5032967;28;19925;-71
2022/10/15 08:59:07;;;;;;;;;;;;;;;12.06;100.00;100487.75;5049293;28;20411;-71
2022/10/15 09:01:42;;;;;;;;;;;;;;;12.09;100.00;100487.56;5028180;28;20371;-71
2022/10/15 09:04:14;;;;;;;;;;;;;;;12.12;100.00;100493.63;5033167;28;19925;-71
2022/10/15 09:06:39;;;;;;;;;;;;;;;12.12;100.00;100485.66;5027820;28;19924;-71
2022/10/15 09:09:22;;;;;;;;;;;;;;;12.10;100.00;100488.41;5027121;28;19932;-71
2022/10/15 09:11:54;;;;;;;;;;;;;;;12.07;100.00;100489.44;5032819;28;19924;-70
2022/10/15 09:14:21;;;;;;;;;;;;;;;12.08;100.00;100485.84;5018256;28;19928;-72
2022/10/15 09:16:47;;;;;;;;;;;;;;;12.07;100.00;100481.50;5032183;28;19925;-71
2022/10/15 09:19:14;;;;;;;;;;;;;;;12.04;100.00;100479.00;5026770;28;19929;-72
2022/10/15 09:21:40;;;;;;;;;;;;;;;12.03;100.00;100484.34;5027060;28;20033;-71
2022/10/15 09:24:05;;;;;;;;;;;;;;;12.01;100.00;100489.75;5013806;28;20424;-72
2022/10/15 09:26:50;;;;;;;;;;;;;;;11.99;100.00;100488.97;5032336;28;21432;-71
2022/10/15 09:29:20;;;;;;;;;;;;;;;11.98;100.00;100489.09;5029843;28;19933;-72
2022/10/15 09:31:47;;;;;;;;;;;;;;;11.99;100.00;100491.63;5046495;28;19925;-73
2022/10/15 09:34:14;;;;;;;;;;;;;;;12.00;100.00;100489.84;5025416;28;20299;-72
2022/10/15 09:36:44;;;;;;;;;;;;;;;12.03;100.00;100485.25;5031596;28;20003;-72
2022/10/15 09:39:29;;;;;;;;;;;;;;;12.07;100.00;100481.50;5025038;28;20429;-72
2022/10/15 09:42:08;;;;;;;;;;;;;;;12.11;100.00;100487.47;5047912;28;19925;-73
2022/10/15 09:44:36;;;;;;;;;;;;;;;12.13;100.00;100493.53;5027067;28;19928;-73
2022/10/15 09:47:01;;;;;;;;;;;;;;;12.13;100.00;100492.66;5027137;28;19971;-73
2022/10/15 09:49:27;;;;;;;;;;;;;;;12.11;100.00;100494.56;5027143;28;19928;-73
2022/10/15 09:52:05;;;;;;;;;;;;;;;12.11;100.00;100484.81;5032479;28;19937;-73
2022/10/15 09:54:43;;;;;;;;;;;;;;;12.12;100.00;100475.91;5032022;28;20532;-73
2022/10/15 09:57:08;;;;;;;;;;;;;;;12.15;100.00;100474.88;5028158;28;19951;-73
2022/10/15 09:59:34;;;;;;;;;;;;;;;12.15;100.00;100478.38;5048937;28;20392;-73
2022/10/15 10:02:00;;;;;;;;;;;;;;;12.17;100.00;100475.63;5050184;28;20336;-74
2022/10/15 10:04:29;;;;;;;;;;;;;;;12.18;100.00;100469.38;5026684;28;19924;-74
2022/10/15 10:06:57;;;;;;;;;;;;;;;12.20;100.00;100457.75;5027126;28;19929;-74
2022/10/15 10:09:46;;;;;;;;;;;;;;;12.21;100.00;100463.91;5032212;28;19925;-73
2022/10/15 10:12:22;;;;;;;;;;;;;;;12.23;100.00;100456.72;5032881;28;20410;-74
2022/10/15 10:15:11;;;;;;;;;;;;;;;12.22;100.00;100463.78;5032269;28;20235;-74
2022/10/15 10:17:36;;;;;;;;;;;;;;;12.26;100.00;100463.63;5028220;28;20003;-74
2022/10/15 10:20:01;;;;;;;;;;;;;;;12.30;100.00;100463.34;5026448;28;19948;-74
2022/10/15 10:22:27;;;;;;;;;;;;;;;12.34;100.00;100458.72;5032530;28;19975;-74
2022/10/15 10:24:52;;;;;;;;;;;;;;;12.39;100.00;100455.78;5018963;28;19924;-74
2022/10/15 10:27:20;;;;;;;;;;;;;;;12.42;100.00;100451.16;5032417;28;20363;-74
2022/10/15 10:30:03;;;;;;;;;;;;;;;12.47;100.00;100457.06;5031177;28;19933;-74
2022/10/15 10:32:29;;;;;;;;;;;;;;;12.53;100.00;100439.06;5048564;28;19952;-73
2022/10/15 10:34:55;;;;;;;;;;;;;;;12.57;100.00;100449.38;5031833;28;19968;-73
2022/10/15 10:37:20;;;;;;;;;;;;;;;12.63;100.00;100449.03;5008386;28;19929;-75
2022/10/15 10:39:50;;;;;;;;;;;;;;;12.69;100.00;100453.09;5033705;28;19956;-73
2022/10/15 10:42:16;;;;;;;;;;;;;;;12.73;100.00;100444.00;5053052;28;19998;-74
2022/10/15 10:44:45;;;;;;;;;;;;;;;12.78;100.00;100441.06;5036021;28;19928;-77
2022/10/15 10:47:12;;;;;;;;;;;;;;;12.81;100.00;100443.53;5035978;28;19963;-77
2022/10/15 10:49:37;;;;;;;;;;;;;;;12.88;100.00;100438.69;5050597;28;20384;-77
2022/10/15 10:52:03;;;;;;;;;;;;;;;12.92;100.00;100432.25;5034757;28;19924;-77
2022/10/15 10:54:29;;;;;;;;;;;;;;;13.01;100.00;100436.13;5035390;28;19921;-74
2022/10/15 10:56:55;;;;;;;;;;;;;;;13.11;100.00;100426.63;5031612;28;19927;-75
2022/10/15 10:59:27;;;;;;;;;;;;;;;13.17;100.00;100409.44;5030537;28;19990;-75
2022/10/15 11:01:53;;;;;;;;;;;;;;;13.26;100.00;100410.66;5020676;28;20402;-73
2022/10/15 11:04:20;;;;;;;;;;;;;;;13.30;100.00;100398.91;5019574;28;19933;-74
2022/10/15 11:07:03;;;;;;;;;;;;;;;13.38;100.00;100395.72;5052703;28;20526;-75
2022/10/15 11:09:52;;;;;;;;;;;;;;;13.52;100.00;100386.91;5034851;28;19925;-78
2022/10/15 11:12:17;;;;;;;;;;;;;;;13.60;100.00;100376.59;5005334;28;19935;-77
2022/10/15 11:14:52;;;;;;;;;;;;;;;13.67;100.00;100356.63;5037583;28;19924;-78
2022/10/15 11:17:37;;;;;;;;;;;;;;;13.75;100.00;100360.59;5032625;28;19928;-78
2022/10/15 11:20:05;;;;;;;;;;;;;;;13.80;100.00;100359.34;5031409;28;19925;-74
2022/10/15 11:22:34;;;;;;;;;;;;;;;13.82;100.00;100359.22;5035232;28;19931;-74
2022/10/15 11:25:11;;;;;;;;;;;;;;;13.83;100.00;100359.13;5033110;28;19932;-75
2022/10/15 11:27:40;;;;;;;;;;;;;;;13.84;100.00;100360.81;5033614;28;20299;-74
2022/10/15 11:30:17;;;;;;;;;;;;;;;13.87;100.00;100361.56;5033612;28;19929;-74
2022/10/15 11:32:46;;;;;;;;;;;;;;;13.90;100.00;100367.53;5033664;28;20027;-74
2022/10/15 11:35:28;;;;;;;;;;;;;;;13.92;100.00;100368.31;5033644;28;19925;-74
2022/10/15 11:38:09;;;;;;;;;;;;;;;13.96;100.00;100376.94;5029974;28;20355;-77
2022/10/15 11:40:47;;;;;;;;;;;;;;;14.02;100.00;100373.00;5028921;28;19929;-76
2022/10/15 11:43:13;;;;;;;;;;;;;;;14.06;100.00;100374.50;5034523;28;19978;-76
2022/10/15 11:45:50;;;;;;;;;;;;;;;14.11;100.00;100377.72;5033608;28;19925;-77
2022/10/15 11:48:40;;;;;;;;;;;;;;;14.20;100.00;100382.41;5033683;28;20362;-74
2022/10/15 11:51:15;;;;;;;;;;;;;;;14.28;100.00;100383.69;5029226;28;19921;-73
2022/10/15 11:53:49;;;;;;;;;;;;;;;14.31;100.00;100376.34;5033715;28;19964;-74
2022/10/15 11:56:18;;;;;;;;;;;;;;;14.34;100.00;100378.78;5035003;28;19925;-74
2022/10/15 11:58:44;;;;;;;;;;;;;;;14.39;100.00;100370.50;5051350;28;19929;-73
2022/10/15 12:01:14;;;;;;;;;;;;;;;14.41;100.00;100373.91;5029506;28;20020;-76
2022/10/15 12:03:48;;;;;;;;;;;;;;;14.42;100.00;100378.25;5052892;28;19970;-75
2022/10/15 12:06:14;;;;;;;;;;;;;;;14.44;100.00;100373.66;5030790;28;19929;-75
2022/10/15 12:08:40;;;;;;;;;;;;;;;14.42;100.00;100366.78;5033838;28;19928;-75
2022/10/15 12:11:32;;;;;;;;;;;;;;;14.40;100.00;100366.88;5028270;28;19925;-76
2022/10/15 12:14:00;;;;;;;;;;;;;;;14.35;100.00;100364.53;5027171;28;20341;-76
2022/10/15 12:16:29;;;;;;;;;;;;;;;14.33;100.00;100349.63;5031293;28;20055;-77
2022/10/15 12:19:00;;;;;;;;;;;;;;;14.32;100.00;100355.91;5029436;28;20287;-74
2022/10/15 12:21:31;;;;;;;;;;;;;;;14.30;100.00;100350.69;5035110;28;20322;-74
2022/10/15 12:23:56;;;;;;;;;;;;;;;14.29;100.00;100348.97;5028124;28;19948;-75
2022/10/15 12:26:31;;;;;;;;;;;;;;;14.26;100.00;100347.38;5028579;28;19964;-75
2022/10/15 12:28:56;;;;;;;;;;;;;;;14.21;100.00;100344.16;5051302;28;20456;-77
2022/10/15 12:31:23;;;;;;;;;;;;;;;14.14;100.00;100350.88;5050709;28;19935;-75